sensor_id;sensor_type;location;lat;lon;timestamp;P1;durP1;ratioP1;P2;durP2;ratioP2
27869;SDS011;15225;50.730;4.244;2023-03-13T18:08:23;12.32;;;3.05;;
27869;SDS011;15225;50.730;4.244;2023-03-13T18:10:49;18.33;;;3.83;;
27869;SDS011;15225;50.730;4.244;2023-03-13T18:13:15;12.05;;;3.88;;
27869;SDS011;15225;50.730;4.244;2023-03-13T18:15:41;16.60;;;2.97;;
27869;SDS011;15225;50.730;4.244;2023-03-13T18:18:09;16.38;;;3.92;;
27869;SDS011;15225;50.730;4.244;2023-03-13T18:20:39;12.98;;;3.50;;
27869;SDS011;15225;50.730;4.244;2023-03-13T18:23:05;9.23;;;3.28;;
27869;SDS011;15225;50.730;4.244;2023-03-13T18:25:31;11.68;;;3.13;;
27869;SDS011;15225;50.730;4.244;2023-03-13T18:27:57;16.50;;;4.07;;
27869;SDS011;15225;50.730;4.244;2023-03-13T18:30:23;10.07;;;3.05;;
27869;SDS011;15225;50.730;4.244;2023-03-13T18:32:49;11.45;;;2.90;;
27869;SDS011;15225;50.730;4.244;2023-03-13T18:35:16;10.60;;;3.28;;
27869;SDS011;15225;50.730;4.244;2023-03-13T18:37:43;9.88;;;2.92;;
27869;SDS011;15225;50.730;4.244;2023-03-13T18:40:14;10.15;;;2.72;;
27869;SDS011;15225;50.730;4.244;2023-03-13T18:42:53;14.73;;;2.80;;
27869;SDS011;15225;50.730;4.244;2023-03-13T18:45:19;12.75;;;3.05;;
27869;SDS011;15225;50.730;4.244;2023-03-13T18:47:47;10.52;;;3.60;;
27869;SDS011;15225;50.730;4.244;2023-03-13T18:50:24;15.50;;;3.40;;
27869;SDS011;15225;50.730;4.244;2023-03-13T18:52:52;9.90;;;2.72;;
27869;SDS011;15225;50.730;4.244;2023-03-13T18:55:20;11.43;;;3.45;;
27869;SDS011;15225;50.730;4.244;2023-03-13T18:57:49;9.77;;;3.22;;
27869;SDS011;15225;50.730;4.244;2023-03-13T19:00:19;13.65;;;3.55;;
27869;SDS011;15225;50.730;4.244;2023-03-13T19:02:53;13.20;;;3.50;;
27869;SDS011;15225;50.730;4.244;2023-03-13T19:05:19;10.13;;;3.03;;
27869;SDS011;15225;50.730;4.244;2023-03-13T19:07:45;25.02;;;3.67;;
27869;SDS011;15225;50.730;4.244;2023-03-13T19:10:27;9.82;;;3.30;;
27869;SDS011;15225;50.730;4.244;2023-03-13T19:12:54;6.78;;;3.00;;
27869;SDS011;15225;50.730;4.244;2023-03-13T19:15:20;12.93;;;3.72;;
27869;SDS011;15225;50.730;4.244;2023-03-13T19:17:51;10.30;;;3.28;;
27869;SDS011;15225;50.730;4.244;2023-03-13T19:20:21;16.13;;;3.60;;
27869;SDS011;15225;50.730;4.244;2023-03-13T19:22:49;11.05;;;3.03;;
27869;SDS011;15225;50.730;4.244;2023-03-13T19:25:16;12.60;;;2.70;;
27869;SDS011;15225;50.730;4.244;2023-03-13T19:27:42;9.23;;;2.88;;
27869;SDS011;15225;50.730;4.244;2023-03-13T19:30:13;7.03;;;2.58;;
27869;SDS011;15225;50.730;4.244;2023-03-13T19:32:43;9.65;;;2.53;;
27869;SDS011;15225;50.730;4.244;2023-03-13T19:35:09;10.75;;;3.83;;
27869;SDS011;15225;50.730;4.244;2023-03-13T19:37:36;19.23;;;9.15;;
27869;SDS011;15225;50.730;4.244;2023-03-13T19:40:04;26.17;;;12.30;;
27869;SDS011;15225;50.730;4.244;2023-03-13T19:42:40;17.35;;;7.95;;
27869;SDS011;15225;50.730;4.244;2023-03-13T19:45:06;13.05;;;5.22;;
27869;SDS011;15225;50.730;4.244;2023-03-13T19:47:32;8.80;;;3.75;;
27869;SDS011;15225;50.730;4.244;2023-03-13T19:49:58;12.18;;;4.18;;
27869;SDS011;15225;50.730;4.244;2023-03-13T19:52:24;8.30;;;3.80;;
27869;SDS011;15225;50.730;4.244;2023-03-13T19:54:52;13.35;;;3.70;;
27869;SDS011;15225;50.730;4.244;2023-03-13T19:57:20;10.50;;;3.45;;
27869;SDS011;15225;50.730;4.244;2023-03-13T19:59:46;9.75;;;2.80;;
27869;SDS011;15225;50.730;4.244;2023-03-13T20:02:12;9.93;;;2.97;;
27869;SDS011;15225;50.730;4.244;2023-03-13T20:04:38;12.82;;;3.90;;
27869;SDS011;15225;50.730;4.244;2023-03-13T20:07:06;10.23;;;3.35;;
27869;SDS011;15225;50.730;4.244;2023-03-13T20:09:32;14.38;;;4.05;;
27869;SDS011;15225;50.730;4.244;2023-03-13T20:11:58;9.10;;;3.78;;
27869;SDS011;15225;50.730;4.244;2023-03-13T20:14:24;9.55;;;4.00;;
27869;SDS011;15225;50.730;4.244;2023-03-13T20:16:50;12.60;;;4.47;;
27869;SDS011;15225;50.730;4.244;2023-03-13T20:19:23;12.70;;;3.90;;
27869;SDS011;15225;50.730;4.244;2023-03-13T20:21:53;10.07;;;3.30;;
27869;SDS011;15225;50.730;4.244;2023-03-13T20:26:49;9.50;;;2.90;;
27869;SDS011;15225;50.730;4.244;2023-03-13T20:29:15;10.82;;;3.25;;
27869;SDS011;15225;50.730;4.244;2023-03-13T20:31:41;10.93;;;3.67;;
27869;SDS011;15225;50.730;4.244;2023-03-13T20:34:07;10.52;;;3.58;;
27869;SDS011;15225;50.730;4.244;2023-03-13T20:36:32;10.18;;;3.15;;
27869;SDS011;15225;50.730;4.244;2023-03-13T20:38:58;9.80;;;3.65;;
27869;SDS011;15225;50.730;4.244;2023-03-13T20:41:27;6.35;;;2.90;;
27869;SDS011;15225;50.730;4.244;2023-03-13T20:43:54;6.30;;;3.00;;
27869;SDS011;15225;50.730;4.244;2023-03-13T20:46:21;12.50;;;4.13;;
27869;SDS011;15225;50.730;4.244;2023-03-13T20:48:47;23.33;;;6.80;;
27869;SDS011;15225;50.730;4.244;2023-03-13T20:51:13;14.85;;;5.00;;
27869;SDS011;15225;50.730;4.244;2023-03-13T20:53:40;9.85;;;4.28;;
27869;SDS011;15225;50.730;4.244;2023-03-13T20:56:06;16.02;;;3.45;;
27869;SDS011;15225;50.730;4.244;2023-03-13T20:58:35;14.25;;;3.65;;
27869;SDS011;15225;50.730;4.244;2023-03-13T21:01:01;7.90;;;3.50;;
27869;SDS011;15225;50.730;4.244;2023-03-13T21:03:28;9.40;;;3.20;;
27869;SDS011;15225;50.730;4.244;2023-03-13T21:05:59;10.13;;;4.88;;
27869;SDS011;15225;50.730;4.244;2023-03-13T21:08:45;13.90;;;3.55;;
27869;SDS011;15225;50.730;4.244;2023-03-13T21:11:18;10.68;;;4.00;;
27869;SDS011;15225;50.730;4.244;2023-03-13T21:13:45;10.85;;;3.53;;
27869;SDS011;15225;50.730;4.244;2023-03-13T21:16:11;8.55;;;3.70;;
27869;SDS011;15225;50.730;4.244;2023-03-13T21:18:38;14.48;;;3.85;;
27869;SDS011;15225;50.730;4.244;2023-03-13T21:21:06;10.50;;;3.25;;
27869;SDS011;15225;50.730;4.244;2023-03-13T21:23:37;12.98;;;3.17;;
27869;SDS011;15225;50.730;4.244;2023-03-13T21:26:04;10.88;;;3.65;;
27869;SDS011;15225;50.730;4.244;2023-03-13T21:28:30;11.05;;;3.72;;
27869;SDS011;15225;50.730;4.244;2023-03-13T21:30:56;13.95;;;3.45;;
27869;SDS011;15225;50.730;4.244;2023-03-13T21:33:22;8.98;;;3.00;;
27869;SDS011;15225;50.730;4.244;2023-03-13T21:35:49;12.63;;;3.55;;
27869;SDS011;15225;50.730;4.244;2023-03-13T21:38:21;13.30;;;3.92;;
27869;SDS011;15225;50.730;4.244;2023-03-13T21:40:47;13.15;;;2.78;;
27869;SDS011;15225;50.730;4.244;2023-03-13T21:43:13;10.05;;;2.97;;
27869;SDS011;15225;50.730;4.244;2023-03-13T21:45:38;10.98;;;3.35;;
27869;SDS011;15225;50.730;4.244;2023-03-13T21:48:04;10.25;;;2.60;;
27869;SDS011;15225;50.730;4.244;2023-03-13T21:50:32;8.07;;;2.47;;
27869;SDS011;15225;50.730;4.244;2023-03-13T21:52:59;8.90;;;2.33;;
27869;SDS011;15225;50.730;4.244;2023-03-13T21:55:25;21.42;;;3.10;;
27869;SDS011;15225;50.730;4.244;2023-03-13T21:57:52;8.73;;;2.83;;
27869;SDS011;15225;50.730;4.244;2023-03-13T22:00:18;10.60;;;3.05;;
27869;SDS011;15225;50.730;4.244;2023-03-13T22:02:44;8.88;;;2.75;;
27869;SDS011;15225;50.730;4.244;2023-03-13T22:05:10;8.73;;;2.15;;
27869;SDS011;15225;50.730;4.244;2023-03-13T22:07:37;8.48;;;2.53;;
27869;SDS011;15225;50.730;4.244;2023-03-13T22:10:03;7.13;;;2.03;;
27869;SDS011;15225;50.730;4.244;2023-03-13T22:12:37;7.72;;;1.90;;
27869;SDS011;15225;50.730;4.244;2023-03-13T22:15:03;9.48;;;1.80;;
27869;SDS011;15225;50.730;4.244;2023-03-13T22:17:36;5.88;;;1.75;;
27869;SDS011;15225;50.730;4.244;2023-03-13T22:20:02;5.85;;;1.88;;
27869;SDS011;15225;50.730;4.244;2023-03-13T22:22:30;8.85;;;2.28;;
27869;SDS011;15225;50.730;4.244;2023-03-13T22:24:56;12.00;;;2.30;;
27869;SDS011;15225;50.730;4.244;2023-03-13T22:27:23;7.60;;;2.15;;
27869;SDS011;15225;50.730;4.244;2023-03-13T22:29:50;6.57;;;2.20;;
27869;SDS011;15225;50.730;4.244;2023-03-13T22:32:16;7.13;;;2.00;;
27869;SDS011;15225;50.730;4.244;2023-03-13T22:34:43;11.65;;;1.77;;
27869;SDS011;15225;50.730;4.244;2023-03-13T22:37:11;6.63;;;2.03;;
